createdAt,value
2022-11-16T00:00:28.725Z,4.85
2022-11-16T00:04:30.374Z,4.97
2022-11-16T00:08:34.747Z,4.88
2022-11-16T00:12:36.647Z,5.00
2022-11-16T00:16:38.727Z,5.01
2022-11-16T00:20:40.164Z,4.75
2022-11-16T00:24:41.591Z,4.89
2022-11-16T00:28:43.105Z,4.88
2022-11-16T00:32:44.495Z,4.85
2022-11-16T00:36:46.884Z,4.83
2022-11-16T00:40:48.795Z,4.96
2022-11-16T00:44:50.348Z,4.92
2022-11-16T00:48:51.798Z,4.82
2022-11-16T00:52:53.802Z,4.84
2022-11-16T00:56:55.234Z,5.13
2022-11-16T01:00:56.746Z,5.13
2022-11-16T01:04:58.265Z,5.16
2022-11-16T01:09:00.186Z,5.09
2022-11-16T01:13:01.598Z,5.16
2022-11-16T01:17:03.950Z,5.12
2022-11-16T01:21:08.695Z,5.12
2022-11-16T01:25:11.990Z,4.97
2022-11-16T01:29:13.690Z,5.03
2022-11-16T01:33:15.139Z,5.01
2022-11-16T01:37:17.503Z,4.91
2022-11-16T01:41:22.880Z,5.03
2022-11-16T01:45:37.494Z,4.97
2022-11-16T01:49:46.123Z,4.70
2022-11-16T01:53:47.679Z,4.71
2022-11-16T01:57:50.000Z,4.56
2022-11-16T02:01:51.418Z,4.66
2022-11-16T02:06:26.552Z,4.70
2022-11-16T02:10:49.821Z,4.60
2022-11-16T02:15:24.375Z,4.49
2022-11-16T02:19:59.411Z,4.56
2022-11-16T02:24:19.203Z,4.52
2022-11-16T02:28:49.776Z,4.42
2022-11-16T02:33:01.569Z,4.45
2022-11-16T02:37:06.455Z,4.37
2022-11-16T02:41:21.043Z,4.34
2022-11-16T02:45:27.843Z,4.30
2022-11-16T02:49:33.884Z,4.34
2022-11-16T02:53:50.527Z,4.36
2022-11-16T02:58:07.329Z,4.28
2022-11-16T03:02:31.935Z,4.26
2022-11-16T03:06:36.122Z,4.32
2022-11-16T03:10:58.622Z,4.17
2022-11-16T03:15:04.865Z,4.04
2022-11-16T03:19:10.526Z,4.24
2022-11-16T03:23:13.755Z,4.16
2022-11-16T03:27:39.149Z,4.03
2022-11-16T03:31:48.943Z,4.14
2022-11-16T03:36:01.261Z,4.29
2022-11-16T03:40:04.912Z,4.25
2022-11-16T03:44:08.907Z,4.21
2022-11-16T03:48:11.736Z,4.18
2022-11-16T03:52:15.425Z,4.19
2022-11-16T03:56:16.895Z,4.32
2022-11-16T04:00:18.544Z,4.16
2022-11-16T04:04:38.586Z,4.35
2022-11-16T04:08:58.318Z,4.25
2022-11-16T04:13:19.310Z,4.32
2022-11-16T04:17:42.551Z,4.36
2022-11-16T04:22:09.917Z,4.37
2022-11-16T04:26:11.660Z,4.23
2022-11-16T04:30:13.448Z,4.30
2022-11-16T04:34:33.216Z,4.45
2022-11-16T04:38:35.046Z,4.52
2022-11-16T04:42:36.910Z,4.54
2022-11-16T04:46:56.858Z,4.51
2022-11-16T04:50:58.272Z,4.55
2022-11-16T04:54:59.917Z,4.59
2022-11-16T04:59:01.405Z,4.72
2022-11-16T05:03:04.732Z,4.70
2022-11-16T05:07:11.203Z,4.73
2022-11-16T05:11:12.782Z,4.70
2022-11-16T05:15:14.344Z,4.73
2022-11-16T05:19:34.276Z,4.71
2022-11-16T05:23:54.450Z,4.83
2022-11-16T05:27:55.917Z,4.82
2022-11-16T05:31:58.298Z,4.82
2022-11-16T05:35:59.746Z,4.70
2022-11-16T05:40:01.262Z,4.83
2022-11-16T05:44:02.767Z,4.96
2022-11-16T05:48:04.453Z,4.91
2022-11-16T05:52:05.912Z,4.93
2022-11-16T05:56:07.588Z,4.96
2022-11-16T06:00:09.691Z,4.96
2022-11-16T06:04:12.235Z,4.95
2022-11-16T06:08:13.733Z,4.95
2022-11-16T06:12:15.256Z,5.02
2022-11-16T06:16:17.029Z,5.07
2022-11-16T06:20:18.595Z,5.14
2022-11-16T06:24:20.035Z,5.10
2022-11-16T06:28:22.113Z,5.11
2022-11-16T06:32:23.552Z,5.12
2022-11-16T06:36:25.135Z,5.08
2022-11-16T06:40:26.592Z,5.15
2022-11-16T06:44:28.034Z,5.24
2022-11-16T06:48:30.854Z,5.15
2022-11-16T06:52:32.478Z,5.07
2022-11-16T06:56:35.343Z,5.13
2022-11-16T07:00:36.885Z,5.16
2022-11-16T07:04:38.398Z,5.28
2022-11-16T07:08:39.956Z,5.29
2022-11-16T07:12:41.440Z,5.21
2022-11-16T07:16:43.089Z,5.38
2022-11-16T07:20:44.592Z,5.38
2022-11-16T07:24:46.147Z,5.32
2022-11-16T07:28:48.555Z,5.36
2022-11-16T07:32:50.262Z,5.42
2022-11-16T07:36:51.717Z,5.49
2022-11-16T07:40:53.223Z,5.46
2022-11-16T07:44:54.661Z,5.56
2022-11-16T07:48:56.889Z,5.47
2022-11-16T07:52:58.356Z,5.51
2022-11-16T07:56:59.996Z,5.51
2022-11-16T08:01:14.537Z,5.65
2022-11-16T08:05:16.206Z,5.69
2022-11-16T08:09:17.762Z,5.79
2022-11-16T08:13:19.207Z,5.80
2022-11-16T08:17:20.734Z,5.83
2022-11-16T08:21:22.175Z,5.82
2022-11-16T08:25:23.650Z,6.00
2022-11-16T08:29:26.392Z,5.73
2022-11-16T08:33:29.375Z,5.80
2022-11-16T08:37:31.959Z,5.75
2022-11-16T08:41:35.804Z,5.84
2022-11-16T08:45:38.369Z,5.81
2022-11-16T08:49:41.957Z,5.87
2022-11-16T08:53:47.881Z,5.86
2022-11-16T08:57:49.330Z,6.22
2022-11-16T09:01:50.854Z,5.96
2022-11-16T09:05:52.468Z,5.73
2022-11-16T09:09:53.914Z,5.73
2022-11-16T09:13:55.949Z,5.82
2022-11-16T09:17:57.448Z,5.75
2022-11-16T09:21:58.878Z,5.87
2022-11-16T09:26:02.268Z,5.87
2022-11-16T09:30:05.286Z,5.76
2022-11-16T09:34:07.146Z,5.76
2022-11-16T09:38:16.021Z,5.68
2022-11-16T09:42:52.638Z,5.75
2022-11-16T09:46:57.700Z,5.76
2022-11-16T09:51:02.853Z,5.74
2022-11-16T09:55:27.355Z,5.86
2022-11-16T09:59:38.517Z,5.78
2022-11-16T10:03:45.246Z,5.89
2022-11-16T10:07:50.131Z,5.77
2022-11-16T10:11:54.502Z,5.79
2022-11-16T10:16:44.722Z,5.82
2022-11-16T10:21:07.244Z,5.86
2022-11-16T10:25:16.493Z,5.96
2022-11-16T10:29:47.353Z,5.85
2022-11-16T10:33:53.849Z,5.69
2022-11-16T10:37:58.960Z,5.69
2022-11-16T10:42:07.710Z,5.68
2022-11-16T10:46:16.569Z,5.64
2022-11-16T10:50:40.821Z,5.65
2022-11-16T10:54:44.423Z,5.68
2022-11-16T10:59:05.231Z,5.70
2022-11-16T11:03:07.280Z,5.62
2022-11-16T11:07:31.468Z,5.63
2022-11-16T11:11:51.526Z,5.56
2022-11-16T11:16:13.776Z,5.56
2022-11-16T11:20:15.339Z,5.54
2022-11-16T11:24:43.397Z,5.56
2022-11-16T11:28:49.090Z,5.50
2022-11-16T11:32:52.785Z,5.51
2022-11-16T11:36:58.205Z,5.54
2022-11-16T11:41:02.273Z,5.52
2022-11-16T11:45:08.969Z,5.57
2022-11-16T11:49:19.611Z,5.62
2022-11-16T11:53:43.325Z,5.50
2022-11-16T11:57:47.700Z,5.56
2022-11-16T12:01:58.227Z,5.56
2022-11-16T12:06:02.589Z,5.48
2022-11-16T12:10:13.314Z,5.51
2022-11-16T12:14:17.815Z,5.75
2022-11-16T12:18:41.095Z,6.18
2022-11-16T12:23:20.894Z,5.99
2022-11-16T12:27:51.539Z,5.77
2022-11-16T12:32:00.957Z,5.77
2022-11-16T12:36:15.837Z,5.74
2022-11-16T12:40:32.635Z,5.61
2022-11-16T12:45:05.890Z,5.66
2022-11-16T12:49:24.383Z,5.61
2022-11-16T12:53:25.788Z,5.59
2022-11-16T12:57:27.449Z,5.45
2022-11-16T13:01:56.263Z,5.56
2022-11-16T13:06:12.293Z,5.50
2022-11-16T13:10:24.522Z,5.60
2022-11-16T13:14:39.434Z,5.69
2022-11-16T13:18:42.870Z,5.67
2022-11-16T13:22:57.555Z,5.66
2022-11-16T13:27:18.245Z,5.60
2022-11-16T13:31:28.526Z,5.74
2022-11-16T13:35:30.269Z,5.83
2022-11-16T13:39:50.361Z,5.76
2022-11-16T13:43:51.951Z,5.69
2022-11-16T13:47:56.066Z,5.76
2022-11-16T13:52:17.187Z,5.87
2022-11-16T13:56:28.730Z,5.76
2022-11-16T14:00:33.735Z,5.85
2022-11-16T14:04:38.949Z,5.91
2022-11-16T14:08:40.433Z,5.86
2022-11-16T14:12:41.833Z,5.86
2022-11-16T14:16:48.885Z,5.89
2022-11-16T14:20:57.060Z,5.89
2022-11-16T14:25:09.479Z,5.83
2022-11-16T14:29:29.377Z,5.82
2022-11-16T14:33:33.987Z,5.80
2022-11-16T14:37:42.244Z,5.91
2022-11-16T14:41:45.319Z,5.90
2022-11-16T14:45:55.078Z,5.82
2022-11-16T14:49:57.166Z,5.87
2022-11-16T14:54:05.039Z,5.88
2022-11-16T14:58:24.658Z,5.89
2022-11-16T15:02:27.633Z,5.91
2022-11-16T15:06:35.433Z,5.78
2022-11-16T15:10:36.996Z,5.77
2022-11-16T15:14:45.728Z,5.77
2022-11-16T15:19:01.572Z,5.75
2022-11-16T15:23:05.012Z,5.74
2022-11-16T15:27:06.377Z,5.56
2022-11-16T15:31:14.892Z,5.56
2022-11-16T15:35:21.637Z,5.43
2022-11-16T15:39:25.645Z,5.44
2022-11-16T15:43:45.133Z,5.45
2022-11-16T15:47:56.470Z,5.44
2022-11-16T15:51:58.832Z,5.33
2022-11-16T15:56:00.638Z,5.45
2022-11-16T16:00:02.461Z,5.27
2022-11-16T16:04:05.987Z,5.23
2022-11-16T16:08:27.929Z,5.30
2022-11-16T16:12:29.393Z,5.31
2022-11-16T16:16:55.541Z,5.22
2022-11-16T16:20:56.996Z,5.22
2022-11-16T16:24:58.583Z,5.19
2022-11-16T16:29:00.019Z,5.07
2022-11-16T16:33:02.378Z,5.10
2022-11-16T16:37:03.934Z,5.20
2022-11-16T16:41:06.468Z,5.11
2022-11-16T16:45:15.903Z,5.32
2022-11-16T16:49:17.359Z,5.27
2022-11-16T16:53:18.853Z,5.13
2022-11-16T16:57:20.290Z,5.13
2022-11-16T17:01:24.231Z,5.10
2022-11-16T17:05:26.401Z,5.09
2022-11-16T17:09:27.861Z,5.22
2022-11-16T17:13:29.565Z,5.27
2022-11-16T17:17:31.533Z,5.22
2022-11-16T17:21:33.028Z,5.13
2022-11-16T17:25:36.647Z,5.15
2022-11-16T17:29:38.105Z,5.21
2022-11-16T17:33:43.190Z,5.13
2022-11-16T17:37:44.609Z,5.14
2022-11-16T17:41:46.102Z,5.34
2022-11-16T17:45:47.572Z,5.27
2022-11-16T17:49:49.054Z,5.22
2022-11-16T17:53:51.048Z,5.33
2022-11-16T17:57:52.521Z,5.23
2022-11-16T18:01:53.962Z,5.31
2022-11-16T18:06:11.138Z,5.17
2022-11-16T18:10:17.856Z,5.31
2022-11-16T18:14:20.751Z,5.34
2022-11-16T18:18:22.218Z,5.10
2022-11-16T18:22:24.213Z,5.13
2022-11-16T18:26:25.740Z,5.11
2022-11-16T18:30:27.257Z,4.94
2022-11-16T18:34:28.824Z,4.99
2022-11-16T18:38:30.879Z,5.00
2022-11-16T18:42:32.334Z,5.06
2022-11-16T18:46:33.878Z,5.13
2022-11-16T18:50:35.344Z,5.06
2022-11-16T18:54:36.869Z,5.17
2022-11-16T18:58:54.648Z,5.18
2022-11-16T19:02:56.164Z,5.27
2022-11-16T19:06:57.645Z,5.28
2022-11-16T19:11:06.791Z,5.18
2022-11-16T19:15:08.490Z,5.13
2022-11-16T19:19:10.067Z,5.16
2022-11-16T19:23:11.552Z,5.16
2022-11-16T19:27:13.068Z,5.17
2022-11-16T19:31:26.829Z,5.31
2022-11-16T19:35:28.416Z,5.23
2022-11-16T19:39:29.905Z,5.10
2022-11-16T19:43:32.141Z,5.16
2022-11-16T19:47:33.787Z,5.20
2022-11-16T19:51:35.430Z,5.18
2022-11-16T19:55:36.925Z,5.16
2022-11-16T19:59:38.626Z,5.16
2022-11-16T20:03:43.155Z,5.28
2022-11-16T20:07:44.689Z,5.22
2022-11-16T20:11:46.183Z,5.18
2022-11-16T20:15:47.733Z,5.21
2022-11-16T20:19:49.148Z,5.19
2022-11-16T20:23:54.037Z,5.23
2022-11-16T20:27:55.575Z,5.20
2022-11-16T20:31:57.145Z,5.24
2022-11-16T20:36:03.626Z,5.18
2022-11-16T20:40:05.700Z,5.11
2022-11-16T20:44:11.953Z,5.19
2022-11-16T20:48:17.534Z,5.09
2022-11-16T20:52:19.165Z,5.07
2022-11-16T20:56:20.914Z,5.11
2022-11-16T21:00:22.507Z,5.10
2022-11-16T21:04:23.999Z,5.12
2022-11-16T21:08:26.157Z,5.17
2022-11-16T21:12:46.382Z,5.11
2022-11-16T21:16:48.064Z,5.09
2022-11-16T21:20:56.372Z,4.97
2022-11-16T21:25:01.014Z,4.93
2022-11-16T21:29:02.817Z,5.02
2022-11-16T21:33:04.294Z,4.96
2022-11-16T21:37:05.739Z,4.98
2022-11-16T21:41:08.552Z,4.94
2022-11-16T21:45:10.615Z,4.97
2022-11-16T21:49:12.111Z,4.97
2022-11-16T21:53:13.601Z,4.96
2022-11-16T21:57:15.482Z,4.77
2022-11-16T22:01:17.181Z,4.78
2022-11-16T22:05:37.792Z,4.84
2022-11-16T22:09:39.309Z,4.63
2022-11-16T22:13:41.644Z,4.59
2022-11-16T22:17:44.186Z,4.49
2022-11-16T22:21:45.678Z,4.56
2022-11-16T22:25:47.131Z,4.52
2022-11-16T22:29:48.683Z,4.44
2022-11-16T22:33:53.759Z,4.45
2022-11-16T22:37:55.978Z,4.34
2022-11-16T22:41:57.582Z,4.29
2022-11-16T22:46:04.478Z,4.27
2022-11-16T22:50:06.328Z,4.25
2022-11-16T22:54:11.435Z,4.34
2022-11-16T22:58:12.964Z,4.26
2022-11-16T23:02:14.479Z,4.31
2022-11-16T23:06:16.605Z,4.25
2022-11-16T23:10:18.161Z,4.21
2022-11-16T23:14:38.135Z,4.17
2022-11-16T23:18:39.627Z,4.12
2022-11-16T23:22:59.690Z,4.17
2022-11-16T23:27:21.487Z,4.23
2022-11-16T23:31:23.064Z,4.04
2022-11-16T23:35:24.663Z,4.15
2022-11-16T23:39:26.122Z,3.90
2022-11-16T23:43:46.189Z,3.95
2022-11-16T23:47:47.648Z,3.96
2022-11-16T23:51:49.209Z,3.85
2022-11-16T23:55:51.029Z,3.78
2022-11-16T23:59:52.628Z,3.89
